Time;durP1;ratioP1;P1;durP2;ratioP2;P2;SDS_P1;SDS_P2;PMS_P1;PMS_P2;Temp;Humidity;BMP_temperature;BMP_pressure;BME280_temperature;BME280_humidity;BME280_pressure;Samples;Min_cycle;Max_cycle;Signal;HPM_P1;HPM_P2
2021/12/08 00:00:40;;;;;;;2.60;1.80;;;6.50;85.60;;;;;;914740;154;27436;-81
2021/12/08 00:03:07;;;;;;;2.13;1.63;;;6.60;85.70;;;;;;914358;156;27487;-81
2021/12/08 00:05:33;;;;;;;8.10;1.80;;;6.60;85.50;;;;;;917287;153;27372;-81
2021/12/08 00:08:00;;;;;;;3.47;1.63;;;6.70;85.60;;;;;;918594;154;27823;-81
2021/12/08 00:10:52;;;;;;;3.57;1.70;;;6.70;85.40;;;;;;927363;153;27678;-82
2021/12/08 00:13:06;;;;;;;1.50;1.40;;;6.80;85.30;;;;;;919636;154;27499;-82
2021/12/08 00:15:34;;;;;;;1.40;1.30;;;6.80;85.00;;;;;;899670;156;27411;-82
2021/12/08 00:18:00;;;;;;;1.70;1.60;;;6.90;84.90;;;;;;912015;155;27458;-82
2021/12/08 00:20:29;;;;;;;2.77;1.47;;;6.90;84.70;;;;;;914401;157;27356;-82
2021/12/08 00:22:54;;;;;;;3.77;1.90;;;6.90;84.60;;;;;;901626;156;27405;-82
2021/12/08 00:25:20;;;;;;;2.03;1.33;;;7.00;84.40;;;;;;904127;153;27384;-82
2021/12/08 00:27:47;;;;;;;1.70;1.60;;;7.00;84.20;;;;;;909908;157;27463;-82
2021/12/08 00:30:14;;;;;;;1.67;1.57;;;7.00;84.00;;;;;;920574;154;27435;-82
2021/12/08 00:32:40;;;;;;;2.27;1.60;;;7.00;83.90;;;;;;916563;156;27389;-82
2021/12/08 00:35:07;;;;;;;2.93;1.43;;;7.10;83.70;;;;;;914494;157;27524;-82
2021/12/08 00:37:33;;;;;;;1.20;1.17;;;7.10;83.50;;;;;;914488;156;27942;-82
2021/12/08 00:40:00;;;;;;;2.50;1.50;;;7.10;83.40;;;;;;919332;156;27396;-82
2021/12/08 00:42:26;;;;;;;1.97;1.33;;;7.10;83.20;;;;;;899146;156;27396;-82
2021/12/08 00:44:53;;;;;;;1.30;1.20;;;7.20;83.10;;;;;;904746;157;27369;-82
2021/12/08 00:47:19;;;;;;;1.43;1.30;;;7.20;83.10;;;;;;904514;158;27344;-82
2021/12/08 00:49:47;;;;;;;3.90;1.70;;;7.20;82.90;;;;;;904899;157;27356;-82
2021/12/08 00:52:13;;;;;;;2.67;1.60;;;7.20;82.90;;;;;;929319;151;27320;-82
2021/12/08 00:54:39;;;;;;;3.47;1.57;;;7.30;82.70;;;;;;945752;149;27642;-82
2021/12/08 00:57:06;;;;;;;1.40;1.30;;;7.30;82.50;;;;;;939096;149;27370;-82
2021/12/08 00:59:32;;;;;;;2.33;1.30;;;7.30;82.40;;;;;;935448;153;27311;-82
2021/12/08 01:02:02;;;;;;;2.33;1.50;;;7.30;82.10;;;;;;922996;153;27318;-82
2021/12/08 01:04:26;;;;;;;1.60;1.50;;;7.30;82.20;;;;;;934818;153;27405;-82
2021/12/08 01:06:52;;;;;;;2.40;1.53;;;7.40;82.00;;;;;;935323;153;27355;-82
2021/12/08 01:09:19;;;;;;;1.60;1.50;;;7.40;82.00;;;;;;935288;150;27425;-82
2021/12/08 01:11:46;;;;;;;2.53;1.50;;;7.30;81.90;;;;;;940079;150;27358;-82
2021/12/08 01:14:12;;;;;;;1.63;1.30;;;7.40;81.80;;;;;;948574;150;27339;-82
2021/12/08 01:16:38;;;;;;;3.93;1.63;;;7.40;81.90;;;;;;942591;150;27306;-82
2021/12/08 01:19:05;;;;;;;1.50;1.40;;;7.40;81.80;;;;;;936724;150;27292;-82
2021/12/08 01:21:32;;;;;;;1.53;1.40;;;7.40;81.70;;;;;;941988;151;27280;-82
2021/12/08 01:23:58;;;;;;;1.97;1.70;;;7.40;81.50;;;;;;951795;150;27391;-82
2021/12/08 01:26:26;;;;;;;1.57;1.47;;;7.40;81.50;;;;;;944820;150;27390;-81
2021/12/08 01:28:55;;;;;;;3.27;1.67;;;7.40;81.40;;;;;;935239;150;27346;-82
2021/12/08 01:31:18;;;;;;;1.60;1.50;;;7.40;81.50;;;;;;934774;153;27908;-81
2021/12/08 01:33:45;;;;;;;2.53;1.50;;;7.30;81.40;;;;;;935371;151;27351;-81
2021/12/08 01:36:11;;;;;;;1.67;1.57;;;7.30;81.40;;;;;;935437;150;27347;-81
2021/12/08 01:38:38;;;;;;;3.70;1.70;;;7.30;81.50;;;;;;935628;151;27420;-81
2021/12/08 01:41:04;;;;;;;2.10;1.50;;;7.20;81.50;;;;;;927900;150;27366;-81
2021/12/08 01:43:41;;;;;;;1.67;1.10;;;7.20;81.70;;;;;;937106;151;27413;-81
2021/12/08 01:46:04;;;;;;;1.40;1.13;;;7.10;81.70;;;;;;935934;151;27320;-81
2021/12/08 01:48:33;;;;;;;2.07;1.30;;;7.00;81.80;;;;;;934300;152;27473;-81
2021/12/08 01:51:02;;;;;;;1.90;1.30;;;7.00;82.00;;;;;;935221;152;27357;-81
2021/12/08 01:53:29;;;;;;;2.00;1.40;;;6.80;82.10;;;;;;937833;153;27338;-81
2021/12/08 01:55:55;;;;;;;1.63;1.30;;;6.80;82.30;;;;;;950178;148;27346;-81
2021/12/08 01:58:22;;;;;;;2.30;1.57;;;6.70;82.50;;;;;;937380;148;27408;-81
2021/12/08 02:00:49;;;;;;;1.40;1.30;;;6.60;82.60;;;;;;948070;151;27274;-81
2021/12/08 02:03:15;;;;;;;1.40;1.20;;;6.50;82.80;;;;;;948056;149;27894;-81
2021/12/08 02:05:42;;;;;;;1.73;1.63;;;6.40;83.20;;;;;;948979;151;27307;-81
2021/12/08 02:08:08;;;;;;;2.63;1.40;;;6.30;83.50;;;;;;950627;148;27332;-81
2021/12/08 02:10:37;;;;;;;1.67;1.43;;;6.20;83.70;;;;;;956686;148;27309;-81
2021/12/08 02:13:02;;;;;;;2.30;1.30;;;6.20;84.10;;;;;;947702;149;27335;-81
2021/12/08 02:15:28;;;;;;;2.63;1.10;;;6.10;84.20;;;;;;946364;151;27395;-81
2021/12/08 02:17:55;;;;;;;2.07;1.40;;;6.10;84.60;;;;;;943229;151;27331;-81
2021/12/08 02:20:21;;;;;;;1.47;1.37;;;6.00;84.90;;;;;;942997;148;27314;-81
2021/12/08 02:22:48;;;;;;;1.70;1.40;;;6.00;85.30;;;;;;957600;148;27770;-81
2021/12/08 02:25:14;;;;;;;1.63;1.37;;;5.90;85.60;;;;;;947893;151;27426;-81
2021/12/08 02:27:41;;;;;;;1.80;1.20;;;5.90;86.10;;;;;;947056;150;27414;-81
2021/12/08 02:30:22;;;;;;;1.47;1.37;;;5.90;86.30;;;;;;948649;151;27365;-81
2021/12/08 02:48:55;;;;;;;3.30;1.80;;;5.60;87.30;;;;;;949503;149;27299;-81
2021/12/08 02:51:22;;;;;;;1.40;1.30;;;5.50;87.50;;;;;;949179;151;27403;-81
2021/12/08 02:53:49;;;;;;;2.20;1.70;;;5.50;88.00;;;;;;949867;149;27323;-81
2021/12/08 02:56:18;;;;;;;1.53;1.10;;;5.50;88.30;;;;;;949686;148;27405;-81
2021/12/08 02:58:45;;;;;;;1.73;1.50;;;5.50;88.50;;;;;;930351;152;27431;-82
2021/12/08 03:01:12;;;;;;;1.67;1.40;;;5.50;88.80;;;;;;935581;150;27402;-82
2021/12/08 03:03:38;;;;;;;1.37;1.27;;;5.40;88.90;;;;;;932107;152;27258;-82
2021/12/08 03:06:05;;;;;;;0.90;0.90;;;5.40;89.20;;;;;;945532;148;27354;-82
2021/12/08 03:08:31;;;;;;;1.03;1.03;;;5.50;89.70;;;;;;945826;152;27294;-82
2021/12/08 03:10:58;;;;;;;1.37;1.17;;;5.50;90.00;;;;;;942699;149;27366;-82
2021/12/08 03:13:41;;;;;;;1.20;1.10;;;5.50;90.00;;;;;;933035;149;27924;-82
2021/12/08 03:16:06;;;;;;;1.07;1.03;;;5.50;90.10;;;;;;930863;152;27310;-81
2021/12/08 03:18:35;;;;;;;1.50;1.40;;;5.50;90.20;;;;;;930114;149;27311;-81
2021/12/08 03:20:59;;;;;;;1.50;1.40;;;5.50;90.20;;;;;;940579;149;27327;-81
2021/12/08 03:23:33;;;;;;;2.03;1.20;;;5.50;90.30;;;;;;945570;146;27310;-81
2021/12/08 03:25:56;;;;;;;2.33;1.40;;;5.50;90.40;;;;;;946144;149;27280;-81
2021/12/08 03:28:23;;;;;;;1.27;1.17;;;5.50;90.40;;;;;;954644;149;27375;-81
2021/12/08 03:30:59;;;;;;;1.80;1.07;;;5.50;90.40;;;;;;936446;149;27841;-81
2021/12/08 03:33:18;;;;;;;1.40;1.30;;;5.50;90.40;;;;;;932765;150;27826;-81
2021/12/08 03:35:45;;;;;;;1.43;1.20;;;5.50;90.40;;;;;;928974;151;27621;-81
2021/12/08 03:38:11;;;;;;;1.93;1.40;;;5.50;90.40;;;;;;927812;151;27450;-83
2021/12/08 03:40:38;;;;;;;1.23;1.13;;;5.50;90.50;;;;;;933180;151;27329;-84
2021/12/08 03:43:04;;;;;;;1.43;1.33;;;5.50;90.60;;;;;;936671;152;27433;-84
2021/12/08 03:45:32;;;;;;;1.17;1.10;;;5.50;90.60;;;;;;933614;150;27321;-85
2021/12/08 03:48:02;;;;;;;1.67;1.43;;;5.60;90.60;;;;;;934450;149;27384;-83
2021/12/08 03:50:27;;;;;;;2.23;1.30;;;5.60;90.70;;;;;;936009;149;27435;-84
2021/12/08 03:52:53;;;;;;;1.10;1.10;;;5.60;90.70;;;;;;932157;149;27413;-84
2021/12/08 03:55:20;;;;;;;1.63;1.27;;;5.60;90.70;;;;;;933661;149;27361;-84
2021/12/08 03:57:46;;;;;;;1.20;1.10;;;5.60;90.70;;;;;;932859;149;27399;-84
2021/12/08 04:00:13;;;;;;;0.93;0.93;;;5.60;90.80;;;;;;911484;157;27363;-84
2021/12/08 04:02:40;;;;;;;1.20;1.13;;;5.60;91.20;;;;;;912007;155;27426;-84
2021/12/08 04:05:06;;;;;;;1.37;1.27;;;5.60;90.90;;;;;;934066;152;27818;-85
2021/12/08 04:07:33;;;;;;;2.70;1.20;;;5.70;90.90;;;;;;927142;153;27343;-84
2021/12/08 04:10:00;;;;;;;1.50;1.10;;;5.70;91.00;;;;;;926675;154;27415;-85
2021/12/08 04:12:26;;;;;;;1.70;1.20;;;5.70;91.00;;;;;;930822;154;27427;-85
2021/12/08 04:14:56;;;;;;;1.30;1.20;;;5.70;91.00;;;;;;930803;152;27435;-83
2021/12/08 04:17:22;;;;;;;1.37;1.10;;;5.70;91.00;;;;;;931326;153;27404;-84
2021/12/08 04:19:49;;;;;;;1.17;1.10;;;5.80;91.10;;;;;;938739;150;27318;-84
2021/12/08 04:22:15;;;;;;;1.57;1.23;;;5.80;91.10;;;;;;934749;153;27339;-84
2021/12/08 04:24:42;;;;;;;1.97;1.30;;;5.80;91.10;;;;;;912561;152;27353;-84
2021/12/08 04:27:09;;;;;;;1.63;1.30;;;5.80;91.10;;;;;;925022;152;27381;-84
2021/12/08 04:29:35;;;;;;;1.17;1.10;;;5.80;91.10;;;;;;912224;155;27425;-83
2021/12/08 04:32:02;;;;;;;1.33;1.10;;;5.90;91.20;;;;;;918977;154;27375;-84
2021/12/08 04:34:29;;;;;;;1.53;1.43;;;5.90;91.10;;;;;;924834;154;27284;-84
2021/12/08 04:36:55;;;;;;;2.40;1.30;;;5.90;91.20;;;;;;925462;152;27298;-84
2021/12/08 04:39:27;;;;;;;1.73;1.60;;;5.90;91.20;;;;;;927234;152;27329;-84
2021/12/08 04:41:58;;;;;;;1.40;1.30;;;5.90;91.20;;;;;;921219;152;27357;-84
2021/12/08 04:44:27;;;;;;;3.20;1.40;;;6.00;91.20;;;;;;921369;151;27408;-84
2021/12/08 04:47:00;;;;;;;2.33;1.30;;;6.00;91.20;;;;;;939248;151;27446;-84
2021/12/08 04:49:50;;;;;;;1.73;1.60;;;6.00;91.20;;;;;;935114;152;27301;-84
2021/12/08 05:03:17;;;;;;;1.00;1.00;;;6.10;91.10;;;;;;931857;152;27430;-84
2021/12/08 05:05:23;;;;;;;1.10;1.10;;;6.10;91.20;;;;;;917573;154;27369;-84
2021/12/08 05:08:00;;;;;;;1.80;1.33;;;6.10;91.30;;;;;;910977;157;27355;-85
2021/12/08 05:10:25;;;;;;;1.70;1.40;;;6.10;91.20;;;;;;924028;151;27336;-84
2021/12/08 05:12:52;;;;;;;1.10;1.10;;;6.10;91.20;;;;;;926679;154;27357;-83
2021/12/08 05:15:18;;;;;;;1.50;1.40;;;6.10;91.20;;;;;;927533;154;27348;-84
2021/12/08 05:17:53;;;;;;;1.83;1.30;;;6.10;91.30;;;;;;927885;154;27319;-83
2021/12/08 05:20:23;;;;;;;1.20;1.10;;;6.20;91.30;;;;;;927113;153;27370;-84
2021/12/08 05:22:49;;;;;;;1.50;1.40;;;6.20;91.30;;;;;;918631;152;27398;-84
2021/12/08 05:25:16;;;;;;;1.00;1.00;;;6.20;91.30;;;;;;929473;151;27344;-84
2021/12/08 05:27:44;;;;;;;1.43;1.33;;;6.20;91.30;;;;;;932371;154;27357;-84
2021/12/08 05:30:09;;;;;;;1.53;1.43;;;6.20;91.30;;;;;;927130;153;27499;-83
2021/12/08 05:32:35;;;;;;;1.73;1.50;;;6.30;91.30;;;;;;927441;153;27422;-84
2021/12/08 05:35:02;;;;;;;1.20;1.10;;;6.30;91.30;;;;;;932595;152;27328;-84
2021/12/08 05:37:29;;;;;;;1.30;1.10;;;6.30;91.30;;;;;;943887;151;27397;-84
2021/12/08 05:39:55;;;;;;;1.30;1.20;;;6.30;91.20;;;;;;940748;151;27337;-84
2021/12/08 05:42:22;;;;;;;1.50;1.40;;;6.30;91.30;;;;;;915202;155;27350;-84
2021/12/08 05:44:48;;;;;;;1.60;1.23;;;6.30;91.30;;;;;;926242;155;27356;-84
2021/12/08 05:47:15;;;;;;;1.50;1.37;;;6.40;91.30;;;;;;926906;151;27365;-84
2021/12/08 05:49:42;;;;;;;1.27;1.17;;;6.30;91.60;;;;;;925633;152;27339;-84
2021/12/08 05:52:08;;;;;;;1.40;1.20;;;6.40;91.30;;;;;;925578;152;27432;-84
2021/12/08 05:54:35;;;;;;;1.33;1.20;;;6.40;91.30;;;;;;927543;152;27319;-84
2021/12/08 05:57:01;;;;;;;1.60;1.33;;;6.40;91.30;;;;;;926617;153;27329;-84
2021/12/08 05:59:28;;;;;;;1.37;1.27;;;6.50;91.40;;;;;;926597;149;27440;-84
2021/12/08 06:01:54;;;;;;;1.40;1.30;;;6.40;91.40;;;;;;920816;152;27308;-84
2021/12/08 06:04:21;;;;;;;1.50;1.40;;;6.50;91.30;;;;;;918462;154;27336;-84
2021/12/08 06:06:48;;;;;;;1.77;1.67;;;6.50;91.30;;;;;;912315;154;27369;-84
2021/12/08 06:09:14;;;;;;;2.40;1.50;;;6.50;91.30;;;;;;912351;157;27384;-84
2021/12/08 06:11:41;;;;;;;1.63;1.53;;;6.50;91.30;;;;;;918848;154;27426;-84
2021/12/08 06:14:07;;;;;;;1.77;1.60;;;6.50;91.30;;;;;;919571;154;27763;-84
2021/12/08 06:16:34;;;;;;;1.50;1.40;;;6.60;91.60;;;;;;924020;153;27335;-84
2021/12/08 06:19:01;;;;;;;1.57;1.30;;;6.60;91.30;;;;;;926633;153;27393;-84
2021/12/08 06:21:27;;;;;;;1.40;1.40;;;6.60;91.30;;;;;;924598;148;27804;-84
2021/12/08 06:23:54;;;;;;;1.60;1.50;;;6.60;91.30;;;;;;918992;153;27416;-84
2021/12/08 06:26:20;;;;;;;1.40;1.30;;;6.60;91.30;;;;;;932823;153;27557;-84
2021/12/08 06:28:47;;;;;;;2.33;1.60;;;6.60;91.30;;;;;;928794;148;27328;-83
2021/12/08 06:31:14;;;;;;;1.60;1.50;;;6.70;91.30;;;;;;924590;152;27436;-84
2021/12/08 06:33:40;;;;;;;1.57;1.47;;;6.60;91.30;;;;;;928916;153;27351;-84
2021/12/08 06:36:07;;;;;;;1.40;1.30;;;6.70;91.30;;;;;;919807;153;27401;-84
2021/12/08 06:38:33;;;;;;;1.40;1.30;;;6.70;91.30;;;;;;913780;154;27355;-84
2021/12/08 06:41:06;;;;;;;1.80;1.47;;;6.70;91.30;;;;;;912518;153;27420;-84
2021/12/08 06:43:32;;;;;;;1.47;1.37;;;6.70;91.30;;;;;;916215;153;27445;-84
2021/12/08 06:45:59;;;;;;;4.40;1.70;;;6.70;91.30;;;;;;914554;154;27350;-84
2021/12/08 06:48:26;;;;;;;1.40;1.30;;;6.70;91.30;;;;;;929189;150;27365;-84
2021/12/08 06:50:55;;;;;;;1.70;1.60;;;6.70;91.30;;;;;;912937;156;27332;-84
2021/12/08 06:53:23;;;;;;;2.60;1.77;;;6.70;91.30;;;;;;914401;154;27675;-84
2021/12/08 06:55:48;;;;;;;2.57;1.60;;;6.70;91.30;;;;;;916233;152;27352;-84
2021/12/08 06:58:19;;;;;;;2.17;1.50;;;6.80;91.40;;;;;;924864;153;27335;-84
2021/12/08 07:04:28;;;;;;;1.60;1.50;;;6.80;91.40;;;;;;932470;151;27281;-84
2021/12/08 07:06:08;;;;;;;1.80;1.70;;;6.80;91.30;;;;;;924623;153;27451;-84
2021/12/08 07:08:30;;;;;;;2.70;2.03;;;6.80;91.30;;;;;;936228;153;27313;-84
2021/12/08 07:10:57;;;;;;;1.43;1.33;;;6.80;91.30;;;;;;936890;149;27262;-84
2021/12/08 07:13:25;;;;;;;2.20;1.80;;;6.80;91.30;;;;;;936733;149;27449;-83
2021/12/08 07:15:50;;;;;;;1.47;1.37;;;6.80;91.40;;;;;;928437;153;27313;-84
2021/12/08 07:18:19;;;;;;;1.73;1.63;;;6.80;91.30;;;;;;930209;151;27306;-84
2021/12/08 07:20:47;;;;;;;2.23;2.07;;;6.80;91.30;;;;;;934335;153;27309;-82
2021/12/08 07:23:21;;;;;;;1.83;1.53;;;6.90;91.30;;;;;;928788;151;27351;-84
2021/12/08 07:25:48;;;;;;;2.37;1.53;;;6.90;91.00;;;;;;929133;148;27342;-84
2021/12/08 07:28:14;;;;;;;2.13;1.80;;;6.90;91.30;;;;;;929387;148;27357;-84
2021/12/08 07:30:41;;;;;;;2.23;1.90;;;6.90;91.30;;;;;;934297;151;27322;-84
2021/12/08 07:33:07;;;;;;;1.73;1.63;;;6.90;91.30;;;;;;957331;149;27276;-83
2021/12/08 07:35:41;;;;;;;2.20;1.90;;;6.90;91.40;;;;;;959486;149;27309;-83
2021/12/08 07:38:06;;;;;;;2.33;1.80;;;6.90;91.50;;;;;;940971;149;27331;-83
2021/12/08 07:40:40;;;;;;;2.27;1.73;;;6.90;91.50;;;;;;936109;153;27403;-83
2021/12/08 07:43:05;;;;;;;2.67;1.73;;;6.90;91.60;;;;;;928236;151;27333;-83
2021/12/08 07:45:38;;;;;;;3.03;1.70;;;6.90;91.60;;;;;;932475;153;27290;-83
2021/12/08 07:48:05;;;;;;;1.97;1.70;;;6.90;91.60;;;;;;934345;151;27305;-83
2021/12/08 07:50:31;;;;;;;2.20;2.00;;;7.00;91.60;;;;;;937206;151;27329;-83
2021/12/08 07:52:58;;;;;;;1.80;1.70;;;7.00;91.60;;;;;;935093;153;27263;-84
2021/12/08 07:55:27;;;;;;;1.70;1.60;;;7.00;91.60;;;;;;942053;149;27374;-84
2021/12/08 07:57:53;;;;;;;2.37;2.07;;;7.10;91.60;;;;;;943959;149;27490;-83
2021/12/08 08:00:20;;;;;;;2.30;1.80;;;7.10;91.50;;;;;;932093;151;27308;-84
2021/12/08 08:02:47;;;;;;;2.77;1.67;;;7.10;91.50;;;;;;935329;147;27402;-82
2021/12/08 08:05:13;;;;;;;2.27;2.07;;;7.10;91.40;;;;;;929603;150;27733;-83
2021/12/08 08:07:42;;;;;;;1.60;1.50;;;7.10;91.40;;;;;;928891;153;27310;-83
2021/12/08 08:10:12;;;;;;;2.10;1.90;;;7.10;91.40;;;;;;928614;151;27308;-83
2021/12/08 08:12:33;;;;;;;1.93;1.83;;;7.20;91.40;;;;;;919174;151;27454;-83
2021/12/08 08:15:00;;;;;;;2.20;2.00;;;7.10;91.40;;;;;;913543;153;27487;-83
2021/12/08 08:17:31;;;;;;;2.23;1.70;;;7.20;91.40;;;;;;925519;154;27324;-83
2021/12/08 08:19:53;;;;;;;1.70;1.60;;;7.20;91.40;;;;;;935600;152;27429;-83
2021/12/08 08:22:19;;;;;;;1.93;1.73;;;7.10;91.40;;;;;;929090;153;27407;-83
2021/12/08 08:24:46;;;;;;;2.03;1.83;;;7.20;91.40;;;;;;923820;152;27336;-83
2021/12/08 08:27:12;;;;;;;2.03;1.90;;;7.20;91.40;;;;;;929107;150;27331;-83
2021/12/08 08:29:39;;;;;;;3.57;2.23;;;7.20;91.50;;;;;;944752;151;27280;-82
2021/12/08 08:32:11;;;;;;;2.43;2.23;;;7.20;91.50;;;;;;950346;151;27295;-83
2021/12/08 08:34:40;;;;;;;2.27;2.07;;;7.20;91.50;;;;;;930406;151;27468;-83
2021/12/08 08:37:04;;;;;;;2.17;1.97;;;7.20;91.60;;;;;;924897;151;27333;-82
2021/12/08 08:39:31;;;;;;;2.77;1.93;;;7.20;91.70;;;;;;920114;153;27313;-82
2021/12/08 08:42:01;;;;;;;2.17;2.07;;;7.20;91.70;;;;;;928452;153;27283;-82
2021/12/08 08:44:36;;;;;;;2.57;2.37;;;7.20;91.80;;;;;;927912;154;27288;-83
2021/12/08 08:47:05;;;;;;;2.50;2.30;;;7.20;91.80;;;;;;923922;152;27305;-83
2021/12/08 08:49:29;;;;;;;2.17;2.00;;;7.30;91.90;;;;;;928414;151;27283;-83
2021/12/08 08:52:00;;;;;;;2.90;2.20;;;7.30;92.00;;;;;;928842;153;27331;-82
2021/12/08 08:54:23;;;;;;;2.43;2.13;;;7.30;92.10;;;;;;927293;153;27524;-83
2021/12/08 08:56:53;;;;;;;4.40;2.77;;;7.30;92.20;;;;;;942025;151;27396;-83
2021/12/08 08:59:18;;;;;;;3.30;2.90;;;7.40;92.30;;;;;;936888;151;27430;-83
2021/12/08 09:01:45;;;;;;;5.17;2.77;;;7.50;92.30;;;;;;932072;149;27305;-83
2021/12/08 09:04:12;;;;;;;3.63;2.70;;;7.50;92.30;;;;;;931417;151;27345;-83
2021/12/08 09:06:43;;;;;;;4.90;3.20;;;7.50;92.30;;;;;;927788;153;27366;-83
2021/12/08 09:09:07;;;;;;;4.00;2.97;;;7.60;92.30;;;;;;927549;154;27321;-83
2021/12/08 09:11:34;;;;;;;3.93;3.13;;;7.60;92.20;;;;;;915222;154;27427;-83
2021/12/08 09:14:07;;;;;;;4.10;2.83;;;7.70;92.20;;;;;;928575;150;27763;-83
2021/12/08 09:16:35;;;;;;;2.80;2.60;;;7.70;92.30;;;;;;936267;152;27459;-83
2021/12/08 09:19:10;;;;;;;2.97;2.60;;;7.80;92.20;;;;;;931615;151;27799;-83
2021/12/08 09:21:36;;;;;;;2.50;2.30;;;7.90;92.30;;;;;;932950;151;27475;-83
2021/12/08 09:24:12;;;;;;;2.43;2.23;;;7.90;92.20;;;;;;924680;152;27422;-83
2021/12/08 09:26:38;;;;;;;2.40;2.20;;;7.90;92.20;;;;;;932318;149;27411;-83
2021/12/08 09:29:08;;;;;;;4.70;2.60;;;8.00;92.20;;;;;;927311;152;27332;-82
2021/12/08 09:31:44;;;;;;;2.90;2.60;;;8.00;92.20;;;;;;913720;154;27402;-82
2021/12/08 09:34:10;;;;;;;2.47;2.20;;;8.10;92.20;;;;;;934100;152;27312;-83
2021/12/08 09:36:39;;;;;;;2.80;2.50;;;8.10;92.20;;;;;;932432;151;27316;-83
2021/12/08 09:39:06;;;;;;;3.07;2.50;;;8.20;92.20;;;;;;945113;150;27885;-83
2021/12/08 09:41:38;;;;;;;3.67;2.50;;;8.20;92.20;;;;;;937003;151;27339;-83
2021/12/08 09:44:05;;;;;;;3.00;2.50;;;8.30;92.30;;;;;;927580;151;27386;-84
2021/12/08 09:46:32;;;;;;;3.80;2.70;;;8.30;92.30;;;;;;927365;151;27313;-83
2021/12/08 09:48:58;;;;;;;2.83;2.63;;;8.40;92.20;;;;;;931197;154;27440;-83
2021/12/08 09:51:25;;;;;;;3.03;2.73;;;8.50;92.10;;;;;;931010;154;27442;-82
2021/12/08 09:53:51;;;;;;;3.37;2.90;;;8.50;91.90;;;;;;935245;152;27413;-83
2021/12/08 09:56:18;;;;;;;4.97;3.00;;;8.50;91.70;;;;;;927809;153;27337;-83
2021/12/08 09:58:45;;;;;;;2.83;2.63;;;8.50;91.70;;;;;;920901;153;27460;-83
2021/12/08 10:01:15;;;;;;;3.40;3.10;;;8.60;91.70;;;;;;928646;151;27333;-82
2021/12/08 10:03:38;;;;;;;3.73;3.00;;;8.60;91.80;;;;;;942984;149;27280;-83
2021/12/08 10:06:04;;;;;;;3.07;2.57;;;8.60;91.80;;;;;;950856;149;27356;-83
2021/12/08 10:08:31;;;;;;;3.03;2.73;;;8.60;91.80;;;;;;944841;149;27335;-84
2021/12/08 10:10:58;;;;;;;2.60;2.40;;;8.70;91.90;;;;;;935848;149;27286;-82
2021/12/08 10:13:24;;;;;;;3.37;2.90;;;8.70;91.70;;;;;;928993;153;27287;-82
2021/12/08 10:15:51;;;;;;;3.50;3.20;;;8.80;91.60;;;;;;931987;153;27356;-83
2021/12/08 10:18:17;;;;;;;3.83;3.20;;;8.80;91.50;;;;;;935039;151;27309;-83
2021/12/08 10:20:47;;;;;;;3.10;2.80;;;8.80;91.40;;;;;;937203;149;27295;-83
2021/12/08 10:23:13;;;;;;;2.90;2.70;;;8.80;91.40;;;;;;935586;151;27360;-82
2021/12/08 10:25:43;;;;;;;3.23;2.93;;;8.90;91.40;;;;;;945300;149;27295;-83
2021/12/08 10:28:09;;;;;;;3.10;2.80;;;8.80;91.30;;;;;;929202;149;27347;-84
2021/12/08 10:30:37;;;;;;;3.23;2.87;;;8.80;91.30;;;;;;940840;150;27380;-84
2021/12/08 10:33:10;;;;;;;2.97;2.77;;;8.90;91.30;;;;;;935065;150;27354;-82
2021/12/08 10:35:43;;;;;;;3.47;3.17;;;8.90;91.30;;;;;;923446;153;27430;-83
2021/12/08 10:38:08;;;;;;;2.70;2.50;;;8.90;91.30;;;;;;920852;152;27435;-83
2021/12/08 10:40:34;;;;;;;3.40;3.10;;;8.90;91.30;;;;;;936160;149;27344;-83
2021/12/08 10:43:01;;;;;;;3.10;2.80;;;8.90;91.30;;;;;;935294;150;27304;-84
2021/12/08 10:45:28;;;;;;;2.87;2.63;;;8.90;91.30;;;;;;934863;150;27420;-83
2021/12/08 10:47:56;;;;;;;3.87;3.00;;;8.90;91.30;;;;;;942135;149;27300;-83
2021/12/08 10:55:59;;;;;;;4.57;2.87;;;9.00;91.10;;;;;;924149;154;27400;-83
2021/12/08 10:58:25;;;;;;;4.37;2.40;;;9.00;91.10;;;;;;928781;153;27289;-82
2021/12/08 11:00:52;;;;;;;4.03;3.57;;;9.00;91.10;;;;;;928699;151;27329;-82
2021/12/08 11:03:19;;;;;;;3.30;2.90;;;9.00;91.20;;;;;;941554;151;27339;-82
2021/12/08 11:05:45;;;;;;;2.97;2.63;;;9.00;91.20;;;;;;953255;148;27313;-82
2021/12/08 11:08:18;;;;;;;3.37;3.07;;;9.00;91.20;;;;;;945406;146;27304;-83
2021/12/08 11:10:53;;;;;;;3.73;3.20;;;9.00;91.20;;;;;;906387;157;27863;-82
2021/12/08 11:13:20;;;;;;;3.43;2.90;;;9.00;91.30;;;;;;950894;151;27325;-84
2021/12/08 11:15:46;;;;;;;2.80;2.60;;;9.00;91.40;;;;;;950711;148;27446;-83
2021/12/08 11:18:22;;;;;;;4.73;3.33;;;9.10;91.50;;;;;;942893;151;27408;-83
2021/12/08 11:20:51;;;;;;;4.53;3.13;;;9.10;91.50;;;;;;949125;151;27323;-83
2021/12/08 11:23:27;;;;;;;3.33;3.03;;;9.10;91.50;;;;;;956092;149;27267;-83
2021/12/08 11:25:45;;;;;;;4.13;3.03;;;9.20;91.50;;;;;;957229;147;27438;-83
2021/12/08 11:28:33;;;;;;;3.00;2.80;;;9.20;91.50;;;;;;959454;147;27408;-82
2021/12/08 11:31:10;;;;;;;3.67;3.10;;;9.20;91.60;;;;;;950494;148;27719;-83
2021/12/08 11:33:41;;;;;;;3.47;3.10;;;9.20;91.60;;;;;;948794;151;27331;-83
2021/12/08 11:36:12;;;;;;;4.00;3.23;;;9.30;91.60;;;;;;947956;149;27351;-83
2021/12/08 11:38:40;;;;;;;3.90;3.33;;;9.30;91.50;;;;;;949611;148;27383;-83
2021/12/08 11:41:11;;;;;;;3.43;3.13;;;9.40;91.40;;;;;;934075;151;27355;-82
2021/12/08 11:43:38;;;;;;;3.70;3.30;;;9.40;91.30;;;;;;954490;148;27381;-83
2021/12/08 11:46:13;;;;;;;3.33;3.03;;;9.40;91.30;;;;;;965882;145;27291;-82
2021/12/08 11:48:40;;;;;;;3.50;3.20;;;9.40;91.20;;;;;;959755;148;27307;-83
2021/12/08 11:51:06;;;;;;;6.27;3.43;;;9.50;91.10;;;;;;940566;151;27352;-83
2021/12/08 11:53:35;;;;;;;4.70;3.23;;;9.50;91.10;;;;;;932924;151;27331;-83
2021/12/08 11:55:59;;;;;;;4.23;3.47;;;9.50;91.00;;;;;;940820;149;27343;-82
2021/12/08 11:58:26;;;;;;;4.03;3.63;;;9.50;90.90;;;;;;947022;151;27430;-82
2021/12/08 12:00:55;;;;;;;3.93;3.50;;;9.50;90.90;;;;;;946673;151;27405;-82
2021/12/08 12:03:20;;;;;;;3.97;3.53;;;9.50;90.80;;;;;;940895;149;27453;-82
2021/12/08 12:05:46;;;;;;;4.00;3.60;;;9.50;90.40;;;;;;935375;149;27414;-82
2021/12/08 12:08:13;;;;;;;3.50;3.20;;;9.50;90.60;;;;;;938878;149;27328;-83
2021/12/08 12:10:39;;;;;;;4.13;3.43;;;9.50;90.60;;;;;;959107;146;27248;-82
2021/12/08 12:13:08;;;;;;;3.67;3.37;;;9.50;90.50;;;;;;941620;146;27327;-82
2021/12/08 12:15:32;;;;;;;3.77;3.43;;;9.50;90.50;;;;;;936202;152;27372;-82
2021/12/08 12:17:59;;;;;;;4.27;3.73;;;9.40;90.50;;;;;;926132;149;27302;-82
2021/12/08 12:20:28;;;;;;;3.80;3.40;;;9.40;90.50;;;;;;938123;152;27311;-82
2021/12/08 12:23:03;;;;;;;4.27;3.83;;;9.40;90.60;;;;;;932605;150;27409;-82
2021/12/08 12:25:43;;;;;;;4.00;3.70;;;9.40;90.60;;;;;;935427;150;27441;-83
2021/12/08 12:28:23;;;;;;;4.00;3.33;;;9.40;90.70;;;;;;937930;149;27398;-83
2021/12/08 12:31:14;;;;;;;3.67;3.37;;;9.40;90.80;;;;;;931993;152;27427;-82
2021/12/08 12:33:41;;;;;;;5.33;3.73;;;9.40;90.80;;;;;;928202;152;27861;-83
2021/12/08 12:36:07;;;;;;;3.20;2.93;;;9.40;90.90;;;;;;939137;149;27301;-83
2021/12/08 12:38:34;;;;;;;3.33;3.03;;;9.40;90.90;;;;;;925577;153;27307;-83
2021/12/08 12:41:00;;;;;;;3.60;3.30;;;9.40;91.00;;;;;;936446;150;27303;-83
2021/12/08 12:43:30;;;;;;;4.93;3.30;;;9.40;91.10;;;;;;935860;152;27345;-83
2021/12/08 12:46:05;;;;;;;3.43;3.13;;;9.50;91.10;;;;;;934346;149;27408;-83
2021/12/08 12:48:32;;;;;;;5.20;3.77;;;9.50;91.10;;;;;;921129;156;27463;-84
2021/12/08 12:51:01;;;;;;;3.67;3.03;;;9.50;90.90;;;;;;926942;154;27288;-83
2021/12/08 12:53:38;;;;;;;5.17;3.60;;;9.50;90.90;;;;;;936452;151;27329;-84
2021/12/08 12:56:03;;;;;;;3.50;3.20;;;9.50;90.90;;;;;;936402;150;27444;-83
2021/12/08 12:58:38;;;;;;;3.50;3.20;;;9.50;90.80;;;;;;951950;149;27316;-83
2021/12/08 13:01:09;;;;;;;4.53;3.07;;;9.50;90.80;;;;;;937813;149;27414;-83
2021/12/08 13:03:46;;;;;;;3.77;3.47;;;9.50;90.80;;;;;;932910;153;27987;-84
2021/12/08 13:06:13;;;;;;;6.60;3.40;;;9.50;90.80;;;;;;928344;151;27329;-83
2021/12/08 13:08:42;;;;;;;3.50;3.20;;;9.50;90.80;;;;;;930355;152;27325;-83
2021/12/08 13:11:30;;;;;;;4.00;3.60;;;9.50;90.80;;;;;;928925;152;27332;-83
2021/12/08 13:13:54;;;;;;;4.37;3.77;;;9.50;90.70;;;;;;920411;152;27341;-83
2021/12/08 13:16:28;;;;;;;3.80;3.30;;;9.50;90.70;;;;;;912998;154;27294;-83
2021/12/08 13:18:58;;;;;;;5.20;3.83;;;9.50;90.60;;;;;;928282;150;27449;-83
2021/12/08 13:21:43;;;;;;;4.57;3.70;;;9.50;90.60;;;;;;932985;150;27297;-84
2021/12/08 13:24:34;;;;;;;4.23;3.47;;;9.50;90.60;;;;;;933688;151;27404;-83
2021/12/08 13:27:00;;;;;;;4.53;3.53;;;9.50;90.60;;;;;;933977;150;27379;-83
2021/12/08 13:29:27;;;;;;;4.33;3.80;;;9.40;90.50;;;;;;932571;151;27403;-83
2021/12/08 13:32:00;;;;;;;4.20;3.60;;;9.40;90.80;;;;;;924558;154;27375;-83
2021/12/08 13:34:20;;;;;;;3.83;3.53;;;9.40;90.70;;;;;;927691;153;27439;-83
2021/12/08 13:36:47;;;;;;;4.10;3.70;;;9.40;90.80;;;;;;929189;153;27905;-83